createdAt,value
2018-01-30T00:02:26.962Z,92.40
2018-01-30T00:04:54.450Z,92.40
2018-01-30T00:07:21.931Z,91.60
2018-01-30T00:09:49.415Z,90.60
2018-01-30T00:12:16.891Z,90.70
2018-01-30T00:14:44.379Z,90.60
2018-01-30T00:17:11.866Z,91.30
2018-01-30T00:19:39.365Z,90.50
2018-01-30T00:22:06.867Z,90.90
2018-01-30T00:24:35.139Z,91.00
2018-01-30T00:27:03.394Z,91.40
2018-01-30T00:29:31.647Z,91.00
2018-01-30T00:31:59.158Z,91.00
2018-01-30T00:34:27.403Z,91.10
2018-01-30T00:36:54.878Z,91.10
2018-01-30T00:39:23.135Z,91.40
2018-01-30T00:41:50.610Z,91.40
2018-01-30T00:44:18.867Z,91.60
2018-01-30T00:46:47.170Z,91.50
2018-01-30T00:49:15.438Z,91.70
2018-01-30T00:51:43.687Z,91.60
2018-01-30T00:54:11.167Z,91.60
2018-01-30T00:56:39.439Z,92.10
2018-01-30T00:59:07.720Z,91.20
2018-01-30T01:01:35.999Z,90.20
2018-01-30T01:04:04.243Z,90.20
2018-01-30T01:06:31.731Z,90.20
2018-01-30T01:08:59.987Z,90.20
2018-01-30T01:11:27.480Z,90.20
2018-01-30T01:13:54.959Z,90.50
2018-01-30T01:16:22.436Z,91.20
2018-01-30T01:18:49.922Z,90.40
2018-01-30T01:21:17.415Z,90.70
2018-01-30T01:23:44.910Z,90.10
2018-01-30T01:26:12.394Z,90.30
2018-01-30T01:28:40.650Z,90.10
2018-01-30T01:31:08.146Z,90.00
2018-01-30T01:33:36.400Z,89.30
2018-01-30T01:36:03.905Z,89.30
2018-01-30T01:38:31.391Z,89.10
2018-01-30T01:40:58.867Z,88.80
2018-01-30T01:43:26.353Z,88.80
2018-01-30T01:45:54.609Z,88.00
2018-01-30T01:48:22.094Z,87.90
2018-01-30T01:50:49.578Z,88.10
2018-01-30T01:53:17.067Z,87.90
2018-01-30T01:55:44.558Z,88.30
2018-01-30T01:58:12.836Z,88.50
2018-01-30T02:00:41.085Z,88.10
2018-01-30T02:03:09.346Z,88.90
2018-01-30T02:05:36.834Z,88.90
2018-01-30T02:08:05.088Z,87.60
2018-01-30T02:10:32.573Z,87.60
2018-01-30T02:13:00.826Z,85.30
2018-01-30T02:15:28.306Z,85.30
2018-01-30T02:17:56.562Z,83.80
2018-01-30T02:20:24.047Z,83.70
2018-01-30T02:22:51.522Z,83.00
2018-01-30T02:25:19.009Z,83.50
2018-01-30T02:27:46.487Z,83.80
2018-01-30T02:30:13.975Z,83.60
2018-01-30T02:32:41.454Z,84.60
2018-01-30T02:35:08.952Z,85.20
2018-01-30T02:37:36.427Z,85.70
2018-01-30T02:40:04.688Z,86.30
2018-01-30T02:42:32.169Z,86.30
2018-01-30T02:45:00.411Z,86.20
2018-01-30T02:47:27.898Z,86.10
2018-01-30T02:49:56.156Z,86.10
2018-01-30T02:52:23.643Z,86.00
2018-01-30T02:54:51.140Z,85.30
2018-01-30T02:57:18.647Z,85.70
2018-01-30T02:59:46.903Z,85.40
2018-01-30T03:02:14.383Z,85.40
2018-01-30T03:04:42.651Z,86.10
2018-01-30T03:07:10.904Z,85.90
2018-01-30T03:09:38.391Z,85.80
2018-01-30T03:12:06.632Z,83.90
2018-01-30T03:14:34.130Z,83.80
2018-01-30T03:17:01.613Z,84.60
2018-01-30T03:19:29.106Z,83.40
2018-01-30T03:21:56.594Z,83.40
2018-01-30T03:24:24.838Z,84.80
2018-01-30T03:26:52.327Z,84.70
2018-01-30T03:29:19.823Z,84.70
2018-01-30T03:31:47.326Z,83.90
2018-01-30T03:34:14.807Z,83.70
2018-01-30T03:36:43.063Z,83.90
2018-01-30T03:39:11.318Z,83.00
2018-01-30T03:41:38.802Z,83.00
2018-01-30T03:44:07.155Z,80.50
2018-01-30T03:46:34.639Z,80.60
2018-01-30T03:49:02.903Z,81.10
2018-01-30T03:51:31.159Z,81.50
2018-01-30T03:53:58.642Z,81.50
2018-01-30T03:56:26.903Z,82.40
2018-01-30T03:58:54.382Z,82.50
2018-01-30T04:01:22.638Z,83.20
2018-01-30T04:03:50.127Z,83.10
2018-01-30T04:06:17.679Z,83.80
2018-01-30T04:08:45.937Z,84.00
2018-01-30T04:11:13.443Z,83.80
2018-01-30T04:13:41.039Z,84.60
2018-01-30T04:16:08.522Z,85.40
2018-01-30T04:18:36.782Z,85.40
2018-01-30T04:21:04.290Z,85.40
2018-01-30T04:23:31.775Z,84.40
2018-01-30T04:25:59.334Z,84.60
2018-01-30T04:28:26.807Z,84.70
2018-01-30T04:30:54.300Z,84.30
2018-01-30T04:33:22.550Z,83.00
2018-01-30T04:35:50.031Z,83.00
2018-01-30T04:38:18.283Z,84.50
2018-01-30T04:40:45.767Z,84.40
2018-01-30T04:43:13.246Z,83.70
2018-01-30T04:45:40.741Z,83.90
2018-01-30T04:48:08.222Z,83.30
2018-01-30T04:50:36.466Z,85.00
2018-01-30T04:53:03.952Z,85.00
2018-01-30T04:55:32.194Z,84.30
2018-01-30T04:58:00.457Z,84.10
2018-01-30T05:00:28.707Z,84.80
2018-01-30T05:02:56.190Z,84.20
2018-01-30T05:05:23.689Z,84.60
2018-01-30T05:07:51.935Z,85.80
2018-01-30T05:10:19.460Z,85.70
2018-01-30T05:12:46.974Z,85.80
2018-01-30T05:15:14.466Z,85.90
2018-01-30T05:17:41.952Z,85.60
2018-01-30T05:20:09.454Z,85.70
2018-01-30T05:22:36.936Z,85.60
2018-01-30T05:25:04.738Z,85.30
2018-01-30T05:27:32.232Z,85.40
2018-01-30T05:30:00.494Z,84.40
2018-01-30T05:32:27.983Z,84.40
2018-01-30T05:34:56.233Z,84.20
2018-01-30T05:37:24.514Z,84.80
2018-01-30T05:39:51.994Z,84.80
2018-01-30T05:42:19.492Z,84.40
2018-01-30T05:44:46.997Z,85.30
2018-01-30T05:47:15.246Z,86.00
2018-01-30T05:49:42.730Z,85.80
2018-01-30T05:52:10.978Z,85.90
2018-01-30T05:54:38.483Z,85.90
2018-01-30T05:57:05.959Z,86.20
2018-01-30T05:59:33.442Z,86.40
2018-01-30T06:02:00.952Z,84.50
2018-01-30T06:04:28.429Z,84.40
2018-01-30T06:06:55.933Z,84.50
2018-01-30T06:09:23.431Z,84.20
2018-01-30T06:11:50.910Z,84.70
2018-01-30T06:14:18.405Z,84.50
2018-01-30T06:16:45.886Z,84.90
2018-01-30T06:19:13.378Z,85.30
2018-01-30T06:21:40.869Z,85.50
2018-01-30T06:24:08.410Z,86.10
2018-01-30T06:26:35.903Z,86.70
2018-01-30T06:29:04.167Z,87.50
2018-01-30T06:31:31.658Z,87.40
2018-01-30T06:33:59.900Z,88.00
2018-01-30T06:36:27.378Z,88.10
2018-01-30T06:38:55.640Z,88.70
2018-01-30T06:41:23.272Z,88.70
2018-01-30T06:43:50.759Z,88.90
2018-01-30T06:46:18.259Z,89.10
2018-01-30T06:48:45.808Z,89.00
2018-01-30T06:51:14.062Z,89.10
2018-01-30T06:53:41.548Z,89.00
2018-01-30T06:56:09.805Z,89.20
2018-01-30T06:58:37.277Z,89.10
2018-01-30T07:01:04.763Z,88.80
2018-01-30T07:03:33.013Z,88.70
2018-01-30T07:06:00.614Z,88.70
2018-01-30T07:08:28.114Z,88.70
2018-01-30T07:10:55.608Z,88.40
2018-01-30T07:13:23.883Z,87.90
2018-01-30T07:15:52.122Z,88.00
2018-01-30T07:18:19.734Z,87.60
2018-01-30T07:20:47.230Z,87.20
2018-01-30T07:23:14.703Z,87.00
2018-01-30T07:25:42.191Z,86.60
2018-01-30T07:28:09.668Z,85.90
2018-01-30T07:30:37.927Z,82.60
2018-01-30T07:33:05.402Z,82.60
2018-01-30T07:35:32.882Z,81.50
2018-01-30T07:38:01.431Z,81.30
2018-01-30T07:40:28.971Z,81.20
2018-01-30T07:42:56.507Z,81.30
2018-01-30T07:45:23.994Z,81.80
2018-01-30T07:47:51.491Z,82.00
2018-01-30T07:50:19.798Z,83.10
2018-01-30T07:52:49.668Z,83.10
2018-01-30T07:55:17.171Z,83.00
2018-01-30T07:57:44.658Z,83.10
2018-01-30T08:00:12.139Z,83.60
2018-01-30T08:02:39.626Z,83.00
2018-01-30T08:05:07.877Z,83.60
2018-01-30T08:07:36.158Z,83.00
2018-01-30T08:10:03.633Z,83.80
2018-01-30T08:12:31.111Z,83.40
2018-01-30T08:14:59.366Z,83.30
2018-01-30T08:17:26.847Z,83.20
2018-01-30T08:19:55.111Z,84.00
2018-01-30T08:22:22.583Z,83.90
2018-01-30T08:24:50.864Z,84.10
2018-01-30T08:27:19.111Z,84.30
2018-01-30T08:29:46.599Z,84.30
2018-01-30T08:32:14.852Z,83.60
2018-01-30T08:34:42.326Z,83.60
2018-01-30T08:37:10.587Z,84.40
2018-01-30T08:39:38.070Z,84.30
2018-01-30T08:42:05.555Z,84.10
2018-01-30T08:44:33.045Z,83.90
2018-01-30T08:47:00.554Z,84.70
2018-01-30T08:49:28.031Z,83.20
2018-01-30T08:51:55.507Z,84.00
2018-01-30T08:54:23.005Z,83.90
2018-01-30T08:56:51.250Z,83.10
2018-01-30T08:59:18.741Z,83.00
2018-01-30T09:01:46.983Z,82.30
2018-01-30T09:04:14.466Z,82.30
2018-01-30T09:06:42.736Z,81.90
2018-01-30T09:09:10.978Z,81.50
2018-01-30T09:11:39.988Z,82.40
2018-01-30T09:14:07.474Z,82.30
2018-01-30T09:16:34.981Z,81.50
2018-01-30T09:19:02.459Z,81.90
2018-01-30T09:21:29.942Z,81.00
2018-01-30T09:23:58.321Z,79.60
2018-01-30T09:26:25.790Z,79.60
2018-01-30T09:28:53.267Z,81.10
2018-01-30T09:31:20.745Z,80.30
2018-01-30T09:33:48.235Z,80.10
2018-01-30T09:36:16.483Z,79.40
2018-01-30T09:38:44.017Z,79.40
2018-01-30T09:41:11.520Z,79.30
2018-01-30T09:43:39.015Z,79.30
2018-01-30T09:46:06.530Z,78.70
2018-01-30T09:48:34.062Z,79.00
2018-01-30T09:51:01.575Z,79.00
2018-01-30T09:53:29.054Z,77.50
2018-01-30T09:55:56.542Z,77.20
2018-01-30T09:58:24.842Z,78.30
2018-01-30T10:00:52.373Z,78.30
2018-01-30T10:03:19.915Z,78.30
2018-01-30T10:05:47.527Z,77.00
2018-01-30T10:08:15.811Z,76.00
2018-01-30T10:10:43.438Z,75.90
2018-01-30T10:13:10.917Z,76.80
2018-01-30T10:15:38.411Z,75.60
2018-01-30T10:18:06.013Z,77.50
2018-01-30T10:20:33.635Z,76.50
2018-01-30T10:23:01.150Z,76.10
2018-01-30T10:25:28.658Z,76.60
2018-01-30T10:27:56.228Z,77.60
2018-01-30T10:30:23.859Z,75.60
2018-01-30T10:32:51.417Z,77.00
2018-01-30T10:35:18.951Z,76.40
2018-01-30T10:37:47.336Z,77.20
2018-01-30T10:40:14.957Z,77.20
2018-01-30T10:42:42.543Z,76.90
2018-01-30T10:45:10.076Z,76.60
2018-01-30T10:47:37.570Z,76.00
2018-01-30T10:50:05.947Z,74.30
2018-01-30T10:52:33.490Z,74.20
2018-01-30T10:55:01.053Z,75.50
2018-01-30T10:57:28.592Z,74.20
2018-01-30T10:59:56.151Z,74.70
2018-01-30T11:02:23.678Z,73.80
2018-01-30T11:04:51.251Z,72.90
2018-01-30T11:07:19.046Z,74.30
2018-01-30T11:09:46.541Z,73.80
2018-01-30T11:12:14.081Z,74.20
2018-01-30T11:14:41.600Z,74.00
2018-01-30T11:17:09.081Z,72.60
2018-01-30T11:19:36.578Z,72.50
2018-01-30T11:22:04.051Z,73.60
2018-01-30T11:24:31.539Z,71.90
2018-01-30T11:26:59.787Z,70.50
2018-01-30T11:29:27.273Z,71.20
2018-01-30T11:31:54.766Z,71.50
2018-01-30T11:34:23.008Z,72.20
2018-01-30T11:36:50.523Z,72.10
2018-01-30T11:39:18.000Z,72.00
2018-01-30T11:41:45.489Z,70.30
2018-01-30T11:44:12.974Z,69.00
2018-01-30T11:46:40.450Z,69.10
2018-01-30T11:49:07.948Z,70.10
2018-01-30T11:51:35.435Z,71.10
2018-01-30T11:54:03.704Z,71.70
2018-01-30T11:56:31.954Z,70.90
2018-01-30T11:58:59.539Z,70.90
2018-01-30T12:01:27.785Z,70.20
2018-01-30T12:03:55.269Z,70.10
2018-01-30T12:06:23.531Z,70.60
2018-01-30T12:08:51.043Z,69.80
2018-01-30T12:11:18.535Z,67.60
2018-01-30T12:13:46.781Z,69.40
2018-01-30T12:16:14.273Z,69.30
2018-01-30T12:18:42.022Z,67.60
2018-01-30T12:21:09.516Z,66.70
2018-01-30T12:23:37.758Z,68.60
2018-01-30T12:26:05.240Z,68.60
2018-01-30T12:28:32.726Z,69.30
2018-01-30T12:31:00.197Z,68.30
2018-01-30T12:33:27.690Z,65.60
2018-01-30T12:35:55.176Z,65.80
2018-01-30T12:38:23.434Z,68.30
2018-01-30T12:40:50.911Z,68.30
2018-01-30T12:43:19.151Z,67.50
2018-01-30T12:45:46.639Z,67.40
2018-01-30T12:48:14.882Z,66.20
2018-01-30T12:50:42.371Z,66.20
2018-01-30T12:53:10.623Z,67.10
2018-01-30T12:55:38.127Z,67.80
2018-01-30T12:58:05.607Z,66.80
2018-01-30T13:00:33.087Z,66.10
2018-01-30T13:03:00.574Z,64.90
2018-01-30T13:05:28.054Z,65.90
2018-01-30T13:07:55.552Z,64.20
2018-01-30T13:10:23.031Z,65.10
2018-01-30T13:12:51.282Z,65.60
2018-01-30T13:15:18.771Z,65.60
2018-01-30T13:17:46.246Z,65.40
2018-01-30T13:20:14.498Z,67.60
2018-01-30T13:22:41.989Z,67.50
2018-01-30T13:25:09.479Z,64.80
2018-01-30T13:27:36.963Z,65.20
2018-01-30T13:30:04.559Z,63.80
2018-01-30T13:32:32.811Z,65.00
2018-01-30T13:35:00.292Z,65.20
2018-01-30T13:37:28.547Z,65.80
2018-01-30T13:39:56.799Z,65.40
2018-01-30T13:42:24.294Z,65.30
2018-01-30T13:44:52.543Z,64.60
2018-01-30T13:47:20.030Z,64.50
2018-01-30T13:49:48.275Z,64.50
2018-01-30T13:52:15.758Z,64.50
2018-01-30T13:54:44.022Z,64.40
2018-01-30T13:57:12.266Z,65.60
2018-01-30T13:59:39.758Z,65.50
2018-01-30T14:02:07.998Z,64.20
2018-01-30T14:04:35.495Z,64.20
2018-01-30T14:07:03.757Z,63.30
2018-01-30T14:09:31.263Z,63.30
2018-01-30T14:11:58.743Z,63.40
2018-01-30T14:14:26.220Z,64.20
2018-01-30T14:16:53.714Z,60.70
2018-01-30T14:19:21.992Z,62.60
2018-01-30T14:21:49.487Z,62.50
2018-01-30T14:24:16.972Z,62.90
2018-01-30T14:26:44.555Z,62.90
2018-01-30T14:29:12.798Z,63.70
2018-01-30T14:31:40.275Z,63.60
2018-01-30T14:34:08.538Z,63.00
2018-01-30T14:36:36.028Z,63.00
2018-01-30T14:39:04.278Z,63.90
2018-01-30T14:41:31.763Z,63.90
2018-01-30T14:43:59.263Z,63.70
2018-01-30T14:46:26.743Z,64.20
2018-01-30T14:48:54.219Z,64.50
2018-01-30T14:51:22.487Z,64.70
2018-01-30T14:53:49.963Z,64.70
2018-01-30T14:56:18.283Z,65.80
2018-01-30T14:58:45.775Z,65.70
2018-01-30T15:01:13.267Z,66.00
2018-01-30T15:03:40.749Z,66.90
2018-01-30T15:06:08.244Z,66.50
2018-01-30T15:08:35.727Z,67.60
2018-01-30T15:11:03.982Z,66.70
2018-01-30T15:13:31.482Z,66.70
2018-01-30T15:15:59.838Z,66.10
2018-01-30T15:18:27.347Z,67.20
2018-01-30T15:20:54.838Z,67.20
2018-01-30T15:23:23.137Z,68.90
2018-01-30T15:25:50.639Z,68.90
2018-01-30T15:28:18.135Z,68.70
2018-01-30T15:30:45.655Z,68.70
2018-01-30T15:33:13.171Z,68.60
2018-01-30T15:35:40.670Z,67.80
2018-01-30T15:38:08.174Z,68.40
2018-01-30T15:40:36.439Z,69.10
2018-01-30T15:43:04.707Z,69.90
2018-01-30T15:45:32.206Z,69.80
2018-01-30T15:47:59.690Z,70.80
2018-01-30T15:50:27.203Z,70.80
2018-01-30T15:52:54.713Z,71.80
2018-01-30T15:55:22.236Z,72.40
2018-01-30T15:57:49.749Z,72.80
2018-01-30T16:00:17.239Z,73.20
2018-01-30T16:02:44.735Z,73.00
2018-01-30T16:05:12.240Z,73.60
2018-01-30T16:07:40.502Z,74.30
2018-01-30T16:10:07.990Z,75.00
2018-01-30T16:12:35.529Z,74.40
2018-01-30T16:15:03.823Z,74.90
2018-01-30T16:17:31.314Z,74.80
2018-01-30T16:19:58.814Z,75.30
2018-01-30T16:22:27.068Z,75.40
2018-01-30T16:24:54.580Z,75.40
2018-01-30T16:27:22.058Z,75.80
2018-01-30T16:29:49.549Z,76.30
2018-01-30T16:32:17.060Z,76.70
2018-01-30T16:34:44.582Z,77.10
2018-01-30T16:37:12.863Z,77.30
2018-01-30T16:39:41.133Z,78.00
2018-01-30T16:42:09.427Z,78.70
2018-01-30T16:44:36.926Z,78.60
2018-01-30T16:47:05.171Z,79.40
2018-01-30T16:49:32.686Z,79.30
2018-01-30T16:52:00.175Z,79.90
2018-01-30T16:54:27.678Z,80.10
2018-01-30T16:56:55.175Z,81.10
2018-01-30T16:59:23.442Z,81.90
2018-01-30T17:01:51.774Z,82.30
2018-01-30T17:04:19.261Z,82.10
2018-01-30T17:06:46.768Z,82.40
2018-01-30T17:09:14.270Z,82.30
2018-01-30T17:11:41.770Z,82.10
2018-01-30T17:14:09.256Z,82.30
2018-01-30T17:16:36.767Z,82.70
2018-01-30T17:19:05.028Z,83.00
2018-01-30T17:21:32.525Z,83.00
2018-01-30T17:24:00.070Z,83.10
2018-01-30T17:26:28.330Z,83.60
2018-01-30T17:28:56.604Z,84.20
2018-01-30T17:31:24.134Z,84.10
2018-01-30T17:33:51.637Z,84.60
2018-01-30T17:36:19.886Z,85.20
2018-01-30T17:38:47.382Z,85.20
2018-01-30T17:41:14.870Z,85.40
2018-01-30T17:43:42.390Z,85.50
2018-01-30T17:46:10.655Z,85.70
2018-01-30T17:48:38.912Z,85.80
2018-01-30T17:51:07.280Z,85.90
2018-01-30T17:53:34.782Z,85.90
2018-01-30T17:56:02.266Z,85.80
2018-01-30T17:58:29.755Z,86.00
2018-01-30T18:00:57.235Z,86.10
2018-01-30T18:03:25.495Z,86.40
2018-01-30T18:05:52.979Z,86.30
2018-01-30T18:08:20.467Z,86.10
2018-01-30T18:10:47.955Z,86.10
2018-01-30T18:13:15.444Z,86.30
2018-01-30T18:15:43.702Z,85.70
2018-01-30T18:18:11.195Z,85.70
2018-01-30T18:20:38.732Z,85.80
2018-01-30T18:23:06.975Z,86.60
2018-01-30T18:25:34.498Z,86.60
2018-01-30T18:28:01.979Z,87.30
2018-01-30T18:30:29.468Z,87.10
2018-01-30T18:32:56.956Z,87.20
2018-01-30T18:35:24.442Z,87.20
2018-01-30T18:37:51.967Z,87.10
2018-01-30T18:40:19.546Z,87.50
2018-01-30T18:42:47.124Z,88.30
2018-01-30T18:45:14.666Z,87.30
2018-01-30T18:47:42.152Z,87.40
2018-01-30T18:50:09.652Z,87.40
2018-01-30T18:52:37.938Z,87.80
2018-01-30T18:55:05.438Z,87.80
2018-01-30T18:57:33.705Z,88.30
2018-01-30T19:00:01.228Z,88.20
2018-01-30T19:02:28.753Z,88.70
2018-01-30T19:04:56.367Z,89.50
2018-01-30T19:07:23.895Z,89.10
2018-01-30T19:09:52.174Z,89.80
2018-01-30T19:12:20.480Z,89.80
2018-01-30T19:14:47.987Z,89.70
2018-01-30T19:17:15.519Z,89.50
2018-01-30T19:19:43.127Z,90.00
2018-01-30T19:22:10.628Z,90.00
2018-01-30T19:24:38.122Z,90.20
2018-01-30T19:27:05.634Z,90.30
2018-01-30T19:29:33.150Z,90.30
2018-01-30T19:32:00.700Z,90.50
2018-01-30T19:34:28.296Z,90.50
2018-01-30T19:36:55.865Z,90.60
2018-01-30T19:39:24.159Z,90.70
2018-01-30T19:41:51.668Z,90.70
2018-01-30T19:44:19.295Z,90.70
2018-01-30T19:46:46.799Z,90.50
2018-01-30T19:49:15.058Z,91.00
2018-01-30T19:51:43.339Z,91.00
2018-01-30T19:54:10.862Z,91.00
2018-01-30T19:56:38.437Z,91.20
2018-01-30T19:59:05.908Z,91.00
2018-01-30T20:01:33.503Z,90.90
2018-01-30T20:04:01.011Z,91.20
2018-01-30T20:06:28.519Z,91.10
2018-01-30T20:08:56.055Z,90.90
2018-01-30T20:11:24.357Z,91.20
2018-01-30T20:13:51.983Z,91.20
2018-01-30T20:16:20.246Z,90.50
2018-01-30T20:18:47.744Z,90.50
2018-01-30T20:21:15.250Z,90.60
2018-01-30T20:23:42.744Z,90.80
2018-01-30T20:26:11.110Z,90.60
2018-01-30T20:28:39.440Z,90.60
2018-01-30T20:31:06.938Z,90.90
2018-01-30T20:33:34.443Z,91.00
2018-01-30T20:36:01.962Z,91.00
2018-01-30T20:38:30.221Z,90.60
2018-01-30T20:40:57.741Z,90.30
2018-01-30T20:43:25.264Z,90.30
2018-01-30T20:45:53.552Z,90.50
2018-01-30T20:48:21.850Z,90.80
2018-01-30T20:50:49.355Z,90.80
2018-01-30T20:53:16.876Z,90.90
2018-01-30T20:55:44.674Z,90.60
2018-01-30T20:58:12.185Z,90.30
2018-01-30T21:00:39.700Z,90.20
2018-01-30T21:03:07.205Z,90.60
2018-01-30T21:05:34.768Z,90.80
2018-01-30T21:08:02.287Z,90.60
2018-01-30T21:10:29.784Z,90.40
2018-01-30T21:12:57.286Z,90.70
2018-01-30T21:15:24.791Z,90.60
2018-01-30T21:17:52.293Z,90.50
2018-01-30T21:20:20.575Z,90.80
2018-01-30T21:22:48.935Z,90.80
2018-01-30T21:25:16.455Z,90.70
2018-01-30T21:27:43.968Z,91.00
2018-01-30T21:30:11.488Z,90.80
2018-01-30T21:32:38.983Z,91.00
2018-01-30T21:35:06.498Z,91.10
2018-01-30T21:37:33.996Z,91.10
2018-01-30T21:40:01.499Z,91.10
2018-01-30T21:42:29.768Z,91.00
2018-01-30T21:44:58.024Z,91.20
2018-01-30T21:47:25.547Z,91.10
2018-01-30T21:49:53.046Z,91.20
2018-01-30T21:52:20.586Z,91.00
2018-01-30T21:54:48.087Z,91.00
2018-01-30T21:57:15.609Z,90.70
2018-01-30T21:59:43.117Z,90.60
2018-01-30T22:02:10.632Z,90.60
2018-01-30T22:04:38.150Z,90.70
2018-01-30T22:07:05.780Z,90.70
2018-01-30T22:09:33.279Z,90.90
2018-01-30T22:12:00.795Z,90.90
2018-01-30T22:14:28.333Z,90.90
2018-01-30T22:16:56.601Z,90.90
2018-01-30T22:19:24.126Z,91.00
2018-01-30T22:21:51.643Z,91.10
2018-01-30T22:24:19.148Z,91.00
2018-01-30T22:26:46.650Z,91.00
2018-01-30T22:29:14.906Z,91.10
2018-01-30T22:31:42.418Z,91.10
2018-01-30T22:34:09.921Z,91.20
2018-01-30T22:36:37.418Z,91.20
2018-01-30T22:39:04.930Z,91.40
2018-01-30T22:41:32.461Z,91.30
2018-01-30T22:43:59.931Z,91.80
2018-01-30T22:46:27.419Z,91.60
